Lake Natoma, California
Current Conditions -  °F | °C
As of 2:45 PM on Saturday 20 Dec 2014 (Local Time) from KMHR Reporting Station
Overcast Overcast  
Wind Chill: 57°   Ceiling: 1300
Heat Index: 57°   Visibility: 10mi
Dew Point: 57°   Wind: 9mph
Humidity: 100%   Direction: 170°S
Pressure: 30.2"   Gusts: NA
Location:  38.6648°N, 121.141°W
Report Text: KMHR 202245Z 17008KT 10SM BKN013 OVC070 14/14 A3020
Loading
Personal Weather Stations






























Interactive Weather Map New forecast layout! Learn more

10-Day Weather Forecast

Advertisements
Track Severe Weather on mobile